Time;durP1;ratioP1;P1;durP2;ratioP2;P2;SDS_P1;SDS_P2;PMS_P1;PMS_P2;Temp;Humidity;BMP_temperature;BMP_pressure;BME280_temperature;BME280_humidity;BME280_pressure;Samples;Min_cycle;Max_cycle;Signal;HPM_P1;HPM_P2
2023/02/09 00:00:15;;;;;;;4.22;2.42;;;2.50;58.80;;;;;;5053596;28;20052;-62
2023/02/09 00:02:41;;;;;;;3.78;2.25;;;2.50;58.60;;;;;;5044207;28;20035;-62
2023/02/09 00:05:08;;;;;;;2.85;2.13;;;2.50;58.40;;;;;;5052344;28;20066;-61
2023/02/09 00:07:34;;;;;;;3.25;1.88;;;2.60;58.00;;;;;;5067475;28;20037;-62
2023/02/09 00:09:59;;;;;;;3.45;2.78;;;2.70;57.70;;;;;;5054060;28;20112;-61
2023/02/09 00:15:09;;;;;;;7.13;2.97;;;2.90;57.10;;;;;;5050271;28;20032;-61
2023/02/09 00:17:36;;;;;;;4.47;2.70;;;2.90;56.90;;;;;;5048538;28;20029;-62
2023/02/09 00:20:03;;;;;;;5.25;2.65;;;2.90;56.80;;;;;;5050388;28;20415;-61
2023/02/09 00:22:29;;;;;;;3.47;2.38;;;2.90;56.40;;;;;;5060050;28;20029;-63
2023/02/09 00:24:55;;;;;;;3.22;2.45;;;2.90;56.40;;;;;;5047014;28;20041;-61
2023/02/09 00:27:20;;;;;;;6.32;2.85;;;2.90;56.50;;;;;;5072652;28;20088;-62
2023/02/09 00:29:46;;;;;;;5.53;2.55;;;2.90;56.70;;;;;;5045008;28;20037;-62
2023/02/09 00:32:12;;;;;;;5.53;2.45;;;2.80;56.90;;;;;;5051273;28;20112;-62
2023/02/09 00:34:37;;;;;;;4.75;2.58;;;2.80;56.90;;;;;;5048113;28;20029;-61
2023/02/09 00:37:03;;;;;;;4.18;2.75;;;2.70;57.00;;;;;;5052287;28;20059;-61
2023/02/09 00:39:29;;;;;;;7.35;3.03;;;2.70;57.00;;;;;;5045615;28;20029;-62
2023/02/09 00:42:09;;;;;;;4.78;2.53;;;2.70;57.10;;;;;;5056842;28;20033;-61
2023/02/09 00:44:37;;;;;;;5.25;2.38;;;2.70;57.30;;;;;;5047402;28;20063;-61
2023/02/09 00:47:05;;;;;;;4.03;2.50;;;2.60;57.40;;;;;;5051793;28;20036;-62
2023/02/09 00:49:31;;;;;;;3.80;2.33;;;2.60;57.40;;;;;;5048385;28;20021;-61
2023/02/09 00:51:57;;;;;;;2.67;2.28;;;2.50;57.50;;;;;;5045303;28;20414;-62
2023/02/09 00:54:22;;;;;;;4.00;2.33;;;2.50;57.60;;;;;;5046092;28;20030;-61
2023/02/09 00:56:48;;;;;;;5.38;2.85;;;2.50;57.80;;;;;;5055700;28;20017;-61
2023/02/09 00:59:14;;;;;;;4.35;2.65;;;2.40;58.00;;;;;;5045005;28;20090;-61
2023/02/09 01:01:40;;;;;;;5.20;2.88;;;2.40;58.30;;;;;;5049789;28;20342;-62
2023/02/09 01:04:06;;;;;;;8.88;2.60;;;2.30;58.30;;;;;;5045072;28;20506;-62
2023/02/09 01:06:32;;;;;;;4.82;2.92;;;2.30;58.60;;;;;;5050362;28;20134;-61
2023/02/09 01:08:58;;;;;;;2.78;2.20;;;2.20;58.60;;;;;;5049003;28;20048;-61
2023/02/09 01:11:26;;;;;;;4.05;2.35;;;2.20;58.70;;;;;;5049589;28;20029;-61
2023/02/09 01:13:57;;;;;;;6.03;2.55;;;2.20;58.70;;;;;;5049514;28;20025;-62
2023/02/09 01:16:27;;;;;;;4.55;2.78;;;2.10;58.80;;;;;;5051505;28;20498;-61
2023/02/09 01:18:53;;;;;;;5.53;2.78;;;2.10;58.70;;;;;;5043747;28;20053;-61
2023/02/09 01:21:21;;;;;;;3.83;2.55;;;2.10;59.50;;;;;;5053560;28;20051;-62
2023/02/09 01:23:47;;;;;;;4.40;2.50;;;2.00;59.10;;;;;;5040420;28;20025;-62
2023/02/09 01:26:15;;;;;;;9.25;2.47;;;2.00;59.00;;;;;;5044565;28;20480;-62
2023/02/09 01:28:41;;;;;;;3.88;2.25;;;2.10;58.90;;;;;;5045064;28;20128;-62
2023/02/09 01:31:19;;;;;;;3.90;1.58;;;2.10;58.90;;;;;;5044431;28;20029;-62
2023/02/09 01:33:45;;;;;;;4.20;2.80;;;2.10;58.90;;;;;;5039175;28;20419;-62
2023/02/09 01:36:10;;;;;;;5.30;2.28;;;2.00;59.00;;;;;;5041703;28;20028;-63
2023/02/09 01:38:36;;;;;;;3.08;2.47;;;2.00;59.20;;;;;;5040221;28;20435;-61
2023/02/09 01:41:02;;;;;;;3.42;2.65;;;2.00;59.30;;;;;;5055860;28;20214;-62
2023/02/09 01:43:27;;;;;;;2.33;1.65;;;1.90;59.40;;;;;;5042659;28;20025;-61
2023/02/09 01:45:54;;;;;;;3.75;2.40;;;1.90;59.60;;;;;;5063402;28;20032;-62
2023/02/09 01:48:27;;;;;;;2.90;2.25;;;1.90;59.80;;;;;;5053975;28;20033;-62
2023/02/09 01:50:56;;;;;;;2.45;2.25;;;1.80;59.90;;;;;;5049831;28;20361;-62
2023/02/09 01:53:23;;;;;;;6.57;3.22;;;1.80;60.00;;;;;;5056133;28;20615;-62
2023/02/09 01:56:00;;;;;;;4.50;2.47;;;1.70;60.00;;;;;;5053152;28;20021;-62
2023/02/09 01:58:27;;;;;;;5.47;3.50;;;1.80;60.20;;;;;;5041163;28;20069;-61
2023/02/09 02:00:53;;;;;;;3.55;2.15;;;1.70;60.30;;;;;;5049071;28;20061;-60
2023/02/09 02:03:22;;;;;;;7.00;2.95;;;1.70;60.90;;;;;;5046076;28;20441;-62
2023/02/09 02:05:51;;;;;;;2.50;2.15;;;1.70;60.40;;;;;;5047551;28;20025;-62
2023/02/09 02:08:25;;;;;;;4.28;2.38;;;1.60;60.30;;;;;;5049232;28;20036;-61
2023/02/09 02:10:52;;;;;;;6.13;2.08;;;1.60;60.50;;;;;;5042270;28;20507;-61
2023/02/09 02:13:18;;;;;;;2.33;2.00;;;1.50;60.70;;;;;;5044379;28;20112;-62
2023/02/09 02:16:01;;;;;;;3.95;2.30;;;1.50;60.90;;;;;;5046205;28;20033;-62
2023/02/09 02:18:36;;;;;;;3.03;2.08;;;1.50;60.90;;;;;;5043282;28;20037;-62
2023/02/09 02:21:10;;;;;;;2.72;2.33;;;1.50;61.00;;;;;;5041723;28;20036;-62
2023/02/09 02:24:03;;;;;;;4.05;2.80;;;1.50;60.90;;;;;;5039359;28;20499;-61
2023/02/09 02:26:48;;;;;;;3.05;2.13;;;1.40;61.10;;;;;;5046120;28;20037;-62
2023/02/09 02:29:28;;;;;;;3.30;2.08;;;1.40;61.30;;;;;;5043306;28;20032;-63
2023/02/09 02:32:05;;;;;;;4.43;2.65;;;1.30;61.40;;;;;;5049506;28;20025;-61
2023/02/09 02:35:02;;;;;;;4.85;2.35;;;1.30;61.60;;;;;;5053627;28;20021;-62
2023/02/09 02:37:42;;;;;;;2.08;1.70;;;1.20;61.80;;;;;;5055854;28;20040;-63
2023/02/09 02:40:21;;;;;;;5.97;2.45;;;1.20;61.90;;;;;;5052493;28;20103;-62
2023/02/09 02:43:08;;;;;;;3.35;1.85;;;1.10;61.90;;;;;;5044062;28;20029;-61
2023/02/09 02:46:02;;;;;;;4.40;2.78;;;1.10;62.00;;;;;;5053202;28;20025;-61
2023/02/09 02:49:09;;;;;;;3.08;2.05;;;1.10;62.30;;;;;;5051570;28;20094;-61
2023/02/09 02:51:45;;;;;;;4.18;2.15;;;1.00;62.40;;;;;;5043316;28;20456;-62
2023/02/09 02:54:19;;;;;;;2.63;2.08;;;0.90;62.50;;;;;;5046977;28;20029;-62
2023/02/09 02:56:56;;;;;;;9.30;3.17;;;1.00;62.50;;;;;;5048498;28;20420;-62
2023/02/09 02:59:28;;;;;;;4.93;2.33;;;1.00;62.50;;;;;;5049121;28;20104;-62
2023/02/09 03:02:09;;;;;;;2.72;1.98;;;1.00;62.60;;;;;;5048249;28;20047;-62
2023/02/09 03:04:36;;;;;;;4.28;2.65;;;1.00;62.60;;;;;;5050233;28;20399;-62
2023/02/09 03:07:06;;;;;;;3.35;2.38;;;0.90;62.70;;;;;;5050795;28;20024;-61
2023/02/09 03:09:32;;;;;;;5.03;2.63;;;1.00;62.80;;;;;;5054984;28;20115;-62
2023/02/09 03:12:10;;;;;;;3.38;2.33;;;0.90;62.80;;;;;;5059674;28;20104;-62
2023/02/09 03:14:59;;;;;;;5.35;2.83;;;1.00;62.70;;;;;;5054933;28;20032;-62
2023/02/09 03:17:59;;;;;;;4.40;2.28;;;1.00;62.80;;;;;;5042391;28;20021;-62
2023/02/09 03:20:42;;;;;;;3.05;2.47;;;0.90;62.80;;;;;;5029430;28;20088;-62
2023/02/09 03:23:22;;;;;;;4.82;1.88;;;0.90;62.90;;;;;;5055604;28;20162;-61
2023/02/09 03:25:53;;;;;;;4.43;2.63;;;0.90;63.10;;;;;;5049874;28;20017;-63
2023/02/09 03:28:25;;;;;;;5.97;2.90;;;0.90;63.10;;;;;;5047385;28;20025;-63
2023/02/09 03:30:52;;;;;;;7.05;2.15;;;0.90;63.10;;;;;;5055765;28;20456;-62
2023/02/09 03:33:25;;;;;;;4.13;2.50;;;0.90;63.10;;;;;;5048153;28;20025;-62
2023/02/09 03:35:59;;;;;;;7.55;2.08;;;0.90;63.20;;;;;;5053809;28;20033;-62
2023/02/09 03:38:26;;;;;;;6.10;2.42;;;0.80;63.10;;;;;;5065359;28;20423;-62
2023/02/09 03:40:52;;;;;;;2.92;2.00;;;0.80;63.50;;;;;;5052083;28;20037;-62
2023/02/09 03:43:18;;;;;;;3.30;2.22;;;0.80;63.30;;;;;;5054612;28;20044;-62
2023/02/09 03:45:43;;;;;;;3.60;2.70;;;0.80;63.30;;;;;;5056936;28;20033;-61
2023/02/09 03:48:09;;;;;;;5.80;2.65;;;0.70;63.30;;;;;;5063321;28;20044;-61
2023/02/09 03:50:35;;;;;;;3.78;2.55;;;0.70;63.40;;;;;;5068094;28;20028;-63
2023/02/09 03:53:05;;;;;;;2.63;2.15;;;0.70;63.50;;;;;;5044962;28;20037;-62
2023/02/09 03:55:31;;;;;;;3.47;2.13;;;0.70;63.60;;;;;;5071850;28;20139;-62
2023/02/09 03:57:57;;;;;;;4.07;2.20;;;0.70;63.60;;;;;;5046089;28;20116;-61
2023/02/09 04:00:22;;;;;;;4.40;2.33;;;0.70;63.70;;;;;;5058649;28;20758;-62
2023/02/09 04:02:48;;;;;;;2.40;1.98;;;0.60;63.80;;;;;;5035748;28;20119;-62
2023/02/09 04:05:14;;;;;;;5.13;3.28;;;0.60;63.80;;;;;;5051687;28;20033;-63
2023/02/09 04:07:40;;;;;;;2.80;2.05;;;0.60;63.80;;;;;;5046888;28;20436;-61
2023/02/09 04:10:06;;;;;;;7.30;2.90;;;0.60;63.90;;;;;;5041958;28;20037;-62
2023/02/09 04:12:32;;;;;;;4.45;2.45;;;0.50;63.90;;;;;;5050613;28;20047;-62
2023/02/09 04:14:57;;;;;;;3.28;2.50;;;0.50;64.00;;;;;;5054745;28;20013;-62
2023/02/09 04:17:23;;;;;;;4.38;2.35;;;0.50;64.70;;;;;;5048246;28;20059;-63
2023/02/09 04:19:49;;;;;;;7.10;2.92;;;0.50;64.30;;;;;;5053402;28;20045;-61
2023/02/09 04:22:14;;;;;;;2.67;2.00;;;0.50;64.50;;;;;;5050145;28;20025;-61
2023/02/09 04:24:40;;;;;;;3.88;2.47;;;0.50;64.50;;;;;;5056728;28;20175;-63
2023/02/09 04:27:06;;;;;;;5.18;2.50;;;0.50;64.50;;;;;;5050317;28;20025;-61
2023/02/09 04:29:31;;;;;;;3.97;2.38;;;0.50;64.50;;;;;;5063322;28;20033;-63
2023/02/09 04:31:57;;;;;;;5.15;2.25;;;0.50;64.50;;;;;;5071331;28;20029;-62
2023/02/09 04:34:23;;;;;;;2.83;2.17;;;0.50;64.60;;;;;;5053013;28;20392;-62
2023/02/09 04:36:49;;;;;;;2.63;2.00;;;0.50;64.60;;;;;;5050524;28;20045;-62
2023/02/09 04:39:15;;;;;;;3.47;2.03;;;0.50;64.50;;;;;;5047923;28;20511;-63
2023/02/09 04:41:41;;;;;;;4.57;2.70;;;0.60;64.40;;;;;;5047892;28;20172;-61
2023/02/09 04:44:07;;;;;;;4.03;2.78;;;0.60;64.30;;;;;;5048743;28;20118;-62
2023/02/09 04:46:32;;;;;;;2.97;2.20;;;0.60;64.30;;;;;;5049179;28;20029;-63
2023/02/09 04:48:58;;;;;;;5.75;2.60;;;0.60;64.30;;;;;;5050210;28;20025;-61
2023/02/09 04:51:24;;;;;;;5.47;2.35;;;0.60;64.30;;;;;;5050321;28;20109;-62
2023/02/09 04:53:49;;;;;;;3.72;2.35;;;0.60;64.30;;;;;;5046581;28;20083;-60
2023/02/09 04:56:15;;;;;;;3.25;1.95;;;0.60;64.20;;;;;;5045366;28;20564;-60
2023/02/09 05:01:28;;;;;;;4.50;3.00;;;0.60;64.40;;;;;;5043652;28;20104;-60
2023/02/09 05:03:54;;;;;;;3.28;1.77;;;0.60;64.60;;;;;;5051514;28;20476;-61
2023/02/09 05:06:20;;;;;;;3.35;1.88;;;0.60;64.40;;;;;;5047899;28;20025;-61
2023/02/09 05:08:47;;;;;;;4.95;1.90;;;0.60;64.30;;;;;;5048473;28;20064;-62
2023/02/09 05:11:13;;;;;;;4.00;2.72;;;0.70;64.20;;;;;;5049646;28;20099;-61
2023/02/09 05:13:40;;;;;;;6.30;2.67;;;0.70;64.10;;;;;;5054108;28;20032;-63
2023/02/09 05:16:07;;;;;;;3.08;2.65;;;0.70;64.10;;;;;;5050207;28;20488;-62
2023/02/09 05:18:33;;;;;;;2.35;2.13;;;0.70;64.10;;;;;;5050225;28;20034;-63
2023/02/09 05:20:58;;;;;;;4.68;2.10;;;0.70;64.10;;;;;;5045805;28;20044;-63
2023/02/09 05:23:24;;;;;;;3.80;2.67;;;0.70;64.10;;;;;;5049699;28;20028;-62
2023/02/09 05:25:49;;;;;;;4.57;2.00;;;0.80;64.20;;;;;;5048455;28;20434;-61
2023/02/09 05:28:15;;;;;;;3.03;2.28;;;0.80;64.10;;;;;;5047571;28;20549;-61
2023/02/09 05:30:41;;;;;;;3.10;2.15;;;0.80;63.80;;;;;;5043247;28;20024;-62
2023/02/09 05:33:07;;;;;;;4.35;2.50;;;1.00;63.20;;;;;;5072508;28;20116;-62
2023/02/09 05:35:33;;;;;;;5.35;2.33;;;1.10;62.50;;;;;;5053787;28;20097;-62
2023/02/09 05:37:58;;;;;;;3.15;2.38;;;1.20;61.90;;;;;;5038084;28;20025;-62
2023/02/09 05:40:24;;;;;;;5.70;2.15;;;1.30;61.70;;;;;;5046299;28;20044;-62
2023/02/09 05:42:50;;;;;;;2.45;2.22;;;1.40;61.60;;;;;;5045400;28;20021;-62
2023/02/09 05:45:15;;;;;;;3.38;1.85;;;1.40;61.50;;;;;;5044722;28;20049;-63
2023/02/09 05:47:41;;;;;;;4.38;2.25;;;1.40;61.40;;;;;;5046881;28;20037;-62
2023/02/09 05:50:07;;;;;;;4.00;2.30;;;1.50;61.20;;;;;;5047913;28;20396;-62
2023/02/09 05:52:32;;;;;;;5.25;2.00;;;1.40;61.00;;;;;;5045482;28;20388;-63
2023/02/09 05:54:58;;;;;;;3.38;2.00;;;1.50;60.90;;;;;;5047099;28;20026;-63
2023/02/09 05:57:24;;;;;;;4.28;2.13;;;1.50;60.80;;;;;;5074020;28;20156;-62
2023/02/09 05:59:49;;;;;;;2.85;1.95;;;1.50;60.90;;;;;;5047235;28;20068;-63
2023/02/09 06:02:15;;;;;;;1.67;1.30;;;1.50;61.10;;;;;;5051152;28;20025;-63
2023/02/09 06:04:40;;;;;;;2.17;1.83;;;1.40;61.20;;;;;;5048431;28;20025;-62
2023/02/09 06:07:06;;;;;;;4.57;2.25;;;1.30;61.30;;;;;;5053657;28;20036;-63
2023/02/09 06:09:32;;;;;;;3.70;2.47;;;1.30;61.50;;;;;;5043834;28;20336;-62
2023/02/09 06:11:58;;;;;;;3.35;2.35;;;1.40;61.60;;;;;;5048541;28;20043;-63
2023/02/09 06:14:24;;;;;;;4.15;2.13;;;1.40;61.40;;;;;;5043824;28;20431;-62
2023/02/09 06:16:50;;;;;;;2.80;1.88;;;1.30;61.30;;;;;;5039852;28;20021;-62
2023/02/09 06:19:18;;;;;;;4.18;2.63;;;1.30;61.20;;;;;;5041909;28;20481;-62
2023/02/09 06:21:45;;;;;;;6.32;3.05;;;1.30;61.10;;;;;;5040738;28;20163;-62
2023/02/09 06:24:12;;;;;;;4.80;3.10;;;1.30;60.90;;;;;;5037749;28;20424;-62
2023/02/09 06:26:38;;;;;;;4.80;2.78;;;1.40;60.80;;;;;;5044404;28;20029;-62
2023/02/09 06:29:04;;;;;;;12.90;2.45;;;1.40;60.50;;;;;;5045277;28;20043;-62
2023/02/09 06:31:30;;;;;;;5.20;2.72;;;1.50;60.20;;;;;;5061344;28;20048;-62
2023/02/09 06:33:55;;;;;;;2.53;2.13;;;1.50;60.00;;;;;;5042369;28;20389;-61
2023/02/09 06:36:21;;;;;;;2.42;2.13;;;1.60;60.00;;;;;;5066912;28;20029;-61
2023/02/09 06:38:47;;;;;;;3.13;2.00;;;1.60;60.00;;;;;;5039542;28;20029;-62
2023/02/09 06:41:12;;;;;;;2.00;1.70;;;1.60;59.90;;;;;;5050701;28;20029;-62
2023/02/09 06:43:38;;;;;;;3.72;2.08;;;1.60;59.90;;;;;;5044078;28;20035;-62
2023/02/09 06:46:08;;;;;;;2.92;1.67;;;1.60;59.50;;;;;;5074732;28;20072;-62
2023/02/09 06:48:36;;;;;;;3.45;2.20;;;1.60;59.50;;;;;;5047552;28;20079;-61
2023/02/09 06:51:06;;;;;;;4.40;2.20;;;1.70;59.40;;;;;;5047965;28;20033;-62
2023/02/09 06:53:32;;;;;;;4.32;2.60;;;1.70;59.30;;;;;;5077322;28;20036;-63
2023/02/09 06:56:01;;;;;;;5.53;2.08;;;1.70;59.20;;;;;;5047027;28;20972;-61
2023/02/09 06:58:27;;;;;;;2.78;2.20;;;1.70;59.40;;;;;;5038703;28;20069;-62
2023/02/09 07:00:53;;;;;;;5.40;2.20;;;1.80;59.60;;;;;;5046687;28;20021;-62
2023/02/09 07:03:18;;;;;;;3.80;2.03;;;1.70;59.80;;;;;;5044521;28;20037;-61
2023/02/09 07:05:44;;;;;;;4.07;2.67;;;1.70;60.50;;;;;;5040902;28;20074;-62
2023/02/09 07:08:10;;;;;;;4.70;3.13;;;1.70;60.10;;;;;;5045804;28;20072;-66
2023/02/09 07:10:35;;;;;;;4.63;2.20;;;1.60;60.30;;;;;;5064556;28;20082;-66
2023/02/09 07:13:01;;;;;;;4.55;2.47;;;1.60;60.40;;;;;;5049436;28;20876;-66
2023/02/09 07:15:27;;;;;;;5.22;2.90;;;1.60;60.40;;;;;;5048280;28;20037;-66
2023/02/09 07:17:52;;;;;;;4.75;2.42;;;1.60;60.30;;;;;;5044655;28;20036;-66
2023/02/09 07:20:18;;;;;;;1.65;1.52;;;1.70;60.40;;;;;;5041206;28;20551;-65
2023/02/09 07:22:44;;;;;;;4.05;1.95;;;1.60;60.30;;;;;;5038789;28;20531;-66
2023/02/09 07:25:09;;;;;;;7.47;2.53;;;1.60;60.20;;;;;;5029616;28;20029;-65
2023/02/09 07:27:35;;;;;;;3.17;1.77;;;1.70;60.20;;;;;;5046891;28;20060;-67
2023/02/09 07:30:01;;;;;;;4.50;2.15;;;1.70;60.40;;;;;;5045051;28;20511;-67
2023/02/09 07:32:27;;;;;;;6.32;2.33;;;1.70;60.50;;;;;;5040289;28;20431;-63
2023/02/09 07:34:53;;;;;;;4.15;2.65;;;1.70;60.50;;;;;;5071248;28;20029;-62
2023/02/09 07:37:18;;;;;;;4.30;2.45;;;1.70;60.50;;;;;;5042220;28;20025;-62
2023/02/09 07:39:44;;;;;;;3.50;1.85;;;1.70;60.40;;;;;;5047709;28;20036;-62
2023/02/09 07:42:10;;;;;;;4.88;3.03;;;1.70;60.20;;;;;;5047997;28;20052;-62
2023/02/09 07:44:36;;;;;;;4.15;2.65;;;1.70;60.10;;;;;;5049909;28;20382;-62
2023/02/09 07:47:02;;;;;;;3.65;2.53;;;1.70;59.80;;;;;;5043250;28;20064;-61
2023/02/09 07:49:28;;;;;;;7.05;2.78;;;1.80;59.70;;;;;;5046984;28;20120;-62
2023/02/09 07:51:53;;;;;;;6.25;2.75;;;1.80;59.30;;;;;;5047550;28;20383;-62
2023/02/09 07:54:20;;;;;;;5.00;2.67;;;1.80;59.20;;;;;;5042252;28;20056;-61
2023/02/09 07:56:45;;;;;;;7.43;2.97;;;1.90;59.10;;;;;;5040476;28;20033;-62
2023/02/09 07:59:11;;;;;;;3.60;2.63;;;1.90;59.00;;;;;;5041582;28;20389;-60
2023/02/09 08:01:37;;;;;;;5.68;3.05;;;1.90;58.90;;;;;;5048908;28;20111;-62
2023/02/09 08:04:03;;;;;;;4.82;2.15;;;1.90;58.80;;;;;;5047102;28;20029;-62
2023/02/09 08:06:44;;;;;;;4.65;2.45;;;2.00;58.80;;;;;;5044072;28;20120;-62
2023/02/09 08:09:11;;;;;;;4.55;3.08;;;2.00;58.80;;;;;;5042958;28;20064;-62
2023/02/09 08:11:39;;;;;;;5.47;2.97;;;2.00;58.70;;;;;;5047442;28;20484;-62
2023/02/09 08:14:18;;;;;;;3.45;2.92;;;2.10;58.70;;;;;;5042932;28;20112;-62
2023/02/09 08:16:46;;;;;;;4.95;2.80;;;2.10;58.60;;;;;;5046093;28;20070;-62
2023/02/09 08:19:17;;;;;;;5.20;2.75;;;2.10;58.60;;;;;;5043367;28;20029;-61
2023/02/09 08:21:45;;;;;;;6.47;2.38;;;2.20;58.50;;;;;;5039990;28;20116;-60
2023/02/09 08:24:13;;;;;;;7.30;3.58;;;2.30;58.40;;;;;;5043730;28;20052;-61
2023/02/09 08:26:39;;;;;;;5.40;2.63;;;2.30;58.30;;;;;;5040010;28;20033;-61
2023/02/09 08:29:07;;;;;;;5.18;2.67;;;2.40;58.30;;;;;;5036257;28;20045;-61
2023/02/09 08:31:33;;;;;;;5.78;3.25;;;2.40;58.40;;;;;;5043725;28;20602;-62
2023/02/09 08:33:58;;;;;;;4.57;2.55;;;2.40;58.10;;;;;;5047239;28;20112;-61
2023/02/09 08:36:24;;;;;;;4.57;2.53;;;2.50;57.90;;;;;;5043116;28;20025;-61
2023/02/09 08:38:50;;;;;;;4.43;2.63;;;2.60;57.90;;;;;;5045212;28;20498;-61
2023/02/09 08:41:17;;;;;;;9.07;3.03;;;2.60;57.80;;;;;;5046148;28;20071;-60
2023/02/09 08:43:47;;;;;;;5.32;3.13;;;2.60;57.80;;;;;;5046543;28;20040;-60
2023/02/09 08:46:14;;;;;;;5.80;3.08;;;2.70;57.60;;;;;;5040749;28;20084;-62
2023/02/09 08:48:43;;;;;;;4.80;2.88;;;2.70;57.40;;;;;;5037618;28;20025;-60
2023/02/09 08:51:11;;;;;;;10.23;3.78;;;2.80;57.50;;;;;;5046808;28;20060;-61
2023/02/09 08:53:36;;;;;;;3.95;2.88;;;2.90;57.50;;;;;;5046357;28;20025;-61
2023/02/09 08:56:02;;;;;;;6.40;3.10;;;3.00;57.40;;;;;;5042136;28;20033;-61
2023/02/09 08:58:29;;;;;;;5.85;3.00;;;3.10;57.30;;;;;;5047446;28;20151;-62
2023/02/09 09:00:58;;;;;;;5.38;3.55;;;3.20;57.30;;;;;;5046182;28;20025;-61
2023/02/09 09:03:27;;;;;;;5.60;3.67;;;3.30;57.10;;;;;;5041079;28;20024;-61
2023/02/09 09:06:06;;;;;;;7.95;3.55;;;3.30;56.90;;;;;;5044540;28;20029;-61
2023/02/09 09:08:33;;;;;;;3.92;3.05;;;3.40;56.70;;;;;;5046889;28;20062;-61
2023/02/09 09:10:58;;;;;;;9.30;2.70;;;3.50;56.60;;;;;;5048868;28;20028;-61
2023/02/09 09:13:24;;;;;;;5.35;2.95;;;3.50;56.50;;;;;;5043300;28;20021;-61
2023/02/09 09:15:51;;;;;;;4.63;3.25;;;3.60;56.40;;;;;;5045815;28;20044;-60
2023/02/09 09:18:17;;;;;;;6.03;3.03;;;3.70;56.10;;;;;;5043912;28;20060;-61
2023/02/09 09:20:44;;;;;;;4.20;3.30;;;3.70;56.20;;;;;;5046487;28;20061;-61
2023/02/09 09:23:10;;;;;;;4.50;3.20;;;3.70;56.00;;;;;;5043824;28;20547;-61
2023/02/09 09:25:38;;;;;;;9.65;3.63;;;3.70;55.90;;;;;;5043536;28;20104;-61
2023/02/09 09:28:03;;;;;;;8.20;3.45;;;3.80;55.90;;;;;;5043341;28;20031;-62
2023/02/09 09:30:29;;;;;;;5.05;3.28;;;3.80;55.90;;;;;;5049939;28;20017;-62
2023/02/09 09:32:55;;;;;;;8.65;3.40;;;3.90;56.00;;;;;;5044358;28;20074;-62
2023/02/09 09:35:20;;;;;;;4.45;2.20;;;4.00;55.80;;;;;;5051779;28;20029;-64
2023/02/09 09:37:46;;;;;;;3.63;2.13;;;4.10;55.60;;;;;;5048544;28;20029;-62
2023/02/09 09:40:25;;;;;;;6.68;3.55;;;4.30;55.40;;;;;;5043021;28;20033;-60
2023/02/09 09:42:56;;;;;;;6.95;3.60;;;4.40;54.50;;;;;;5044102;28;20024;-62
2023/02/09 09:45:25;;;;;;;4.97;3.30;;;4.50;54.60;;;;;;5040127;28;20021;-61
2023/02/09 09:47:51;;;;;;;4.85;3.78;;;4.50;54.50;;;;;;5028081;28;20029;-61
2023/02/09 09:50:38;;;;;;;5.80;3.40;;;4.50;54.40;;;;;;5039554;28;20099;-61
2023/02/09 09:53:17;;;;;;;4.43;2.92;;;4.60;54.30;;;;;;5046885;28;20140;-61
2023/02/09 09:55:44;;;;;;;6.35;2.80;;;4.60;54.20;;;;;;5044814;28;20078;-62
2023/02/09 09:58:17;;;;;;;5.95;3.55;;;4.60;54.20;;;;;;5040566;28;20048;-61
2023/02/09 10:00:44;;;;;;;3.42;3.03;;;4.70;53.60;;;;;;5045134;28;20041;-61
2023/02/09 10:03:15;;;;;;;9.98;4.13;;;4.70;53.50;;;;;;5043206;28;20033;-61
2023/02/09 10:05:42;;;;;;;6.57;3.60;;;4.70;53.50;;;;;;5031958;28;20037;-61
2023/02/09 10:08:17;;;;;;;6.05;3.55;;;4.70;53.30;;;;;;5044803;28;20041;-61
2023/02/09 10:11:02;;;;;;;4.88;3.10;;;4.70;53.30;;;;;;5042007;28;20407;-61
2023/02/09 10:13:55;;;;;;;5.00;2.72;;;4.70;53.20;;;;;;5040732;28;20049;-62
2023/02/09 10:16:24;;;;;;;4.93;3.53;;;4.80;52.90;;;;;;5046690;28;20439;-61
2023/02/09 10:18:58;;;;;;;5.38;3.33;;;4.80;53.10;;;;;;5045835;28;20028;-61
2023/02/09 10:21:26;;;;;;;4.55;3.20;;;4.80;52.90;;;;;;5032120;28;20175;-62
2023/02/09 10:24:01;;;;;;;7.05;3.10;;;4.90;52.70;;;;;;5047743;28;20036;-61
2023/02/09 10:26:31;;;;;;;7.60;3.13;;;4.90;52.80;;;;;;5042509;28;20363;-62
2023/02/09 10:29:23;;;;;;;7.45;3.92;;;5.10;52.40;;;;;;5051902;28;20028;-61
2023/02/09 10:31:58;;;;;;;6.50;3.65;;;5.10;51.90;;;;;;5039649;28;20102;-61
2023/02/09 10:34:40;;;;;;;5.88;3.10;;;5.20;51.90;;;;;;5045297;28;20024;-62
2023/02/09 10:37:15;;;;;;;6.03;3.53;;;5.40;52.10;;;;;;5042405;28;20068;-62
2023/02/09 10:39:41;;;;;;;4.35;3.17;;;5.60;51.80;;;;;;5037665;28;20069;-62
2023/02/09 10:42:26;;;;;;;4.18;3.13;;;5.70;51.20;;;;;;5042516;28;20575;-61
2023/02/09 10:44:55;;;;;;;7.95;3.33;;;5.90;51.20;;;;;;5049346;28;20817;-61
2023/02/09 10:47:24;;;;;;;8.23;3.22;;;6.00;51.00;;;;;;5041858;28;20051;-62
2023/02/09 10:49:52;;;;;;;8.80;3.67;;;6.10;50.80;;;;;;5044982;28;20040;-62
2023/02/09 10:52:21;;;;;;;7.93;4.28;;;6.30;50.40;;;;;;5044501;28;20167;-61
2023/02/09 10:54:55;;;;;;;5.95;3.65;;;6.30;50.90;;;;;;5043827;28;20086;-61
2023/02/09 10:57:34;;;;;;;6.78;3.90;;;6.50;50.30;;;;;;5036251;28;20032;-62
2023/02/09 11:00:21;;;;;;;6.50;3.50;;;6.60;49.90;;;;;;5043092;28;20844;-61
2023/02/09 11:02:47;;;;;;;10.98;4.22;;;6.60;49.70;;;;;;5035251;28;20030;-61
2023/02/09 11:05:26;;;;;;;8.18;3.83;;;6.70;49.60;;;;;;5057097;28;20345;-60
2023/02/09 11:08:10;;;;;;;5.03;3.30;;;6.70;49.30;;;;;;5045853;28;20032;-61
2023/02/09 11:11:00;;;;;;;6.10;3.50;;;6.60;49.40;;;;;;5048330;28;20037;-61
2023/02/09 11:13:26;;;;;;;8.70;3.70;;;6.70;49.80;;;;;;5044120;28;20037;-62
2023/02/09 11:16:15;;;;;;;6.57;3.63;;;6.80;49.50;;;;;;5046465;28;20037;-62
2023/02/09 11:18:44;;;;;;;5.35;3.45;;;6.90;49.40;;;;;;5047528;28;20091;-61
2023/02/09 11:21:33;;;;;;;9.85;3.55;;;6.90;49.40;;;;;;5041343;28;20096;-60
2023/02/09 11:24:33;;;;;;;5.75;4.28;;;6.90;49.60;;;;;;5045070;28;20059;-61
2023/02/09 11:27:10;;;;;;;5.97;3.90;;;7.00;49.60;;;;;;5047366;28;20096;-61
2023/02/09 11:29:44;;;;;;;10.00;3.47;;;7.10;49.40;;;;;;5048877;28;20388;-61
2023/02/09 11:32:18;;;;;;;6.88;4.40;;;7.20;49.70;;;;;;5048732;28;20037;-61
2023/02/09 11:34:53;;;;;;;6.07;3.97;;;7.40;49.30;;;;;;5052289;28;20036;-61
2023/02/09 11:37:34;;;;;;;6.47;4.30;;;7.30;49.20;;;;;;5043180;28;20032;-64
2023/02/09 11:40:34;;;;;;;6.20;3.58;;;7.20;49.60;;;;;;5050433;28;20209;-60
2023/02/09 11:43:14;;;;;;;8.30;3.97;;;7.20;49.90;;;;;;5048374;28;20808;-61
2023/02/09 11:45:46;;;;;;;8.95;4.38;;;7.20;49.90;;;;;;5045398;28;20056;-61
2023/02/09 11:48:23;;;;;;;9.43;4.13;;;7.10;50.30;;;;;;5052621;28;20048;-61
2023/02/09 11:51:18;;;;;;;9.63;4.30;;;7.10;50.40;;;;;;5048367;28;20480;-62
2023/02/09 11:53:56;;;;;;;5.55;3.88;;;7.10;50.40;;;;;;5045317;28;20029;-62
2023/02/09 11:56:23;;;;;;;6.43;4.45;;;6.90;50.90;;;;;;5039579;28;20033;-61
2023/02/09 11:59:12;;;;;;;8.38;4.28;;;6.90;51.10;;;;;;5041707;28;20094;-62
2023/02/09 12:01:46;;;;;;;5.20;3.50;;;7.10;51.20;;;;;;5043812;28;20626;-63
2023/02/09 12:04:17;;;;;;;6.10;3.42;;;7.20;51.20;;;;;;5046290;28;20365;-62
2023/02/09 12:06:58;;;;;;;5.95;4.13;;;7.50;51.00;;;;;;5044215;28;20025;-62
2023/02/09 12:09:30;;;;;;;5.97;3.75;;;7.60;50.50;;;;;;5055971;28;20099;-62
2023/02/09 12:12:14;;;;;;;9.27;3.57;;;7.60;50.60;;;;;;5044335;28;20021;-62
2023/02/09 12:15:00;;;;;;;9.10;3.45;;;7.70;50.70;;;;;;5037406;28;20290;-63
2023/02/09 12:17:40;;;;;;;5.25;3.00;;;7.80;50.60;;;;;;5046418;28;20021;-62
2023/02/09 12:20:28;;;;;;;7.38;4.15;;;8.00;50.30;;;;;;5050366;28;20094;-61
2023/02/09 12:23:00;;;;;;;15.73;5.18;;;8.10;50.10;;;;;;5039849;28;20034;-61
2023/02/09 12:25:40;;;;;;;5.97;3.25;;;8.00;50.50;;;;;;5041448;28;20021;-61
2023/02/09 12:28:16;;;;;;;7.10;4.22;;;8.00;50.50;;;;;;5052550;28;20078;-61
2023/02/09 12:30:42;;;;;;;6.95;4.00;;;8.10;50.50;;;;;;5042134;28;20415;-60
2023/02/09 12:33:21;;;;;;;4.55;3.25;;;8.20;50.60;;;;;;5040975;28;20025;-61
2023/02/09 12:36:07;;;;;;;5.93;3.33;;;8.50;50.20;;;;;;5045406;28;20032;-62
2023/02/09 12:38:39;;;;;;;6.68;3.45;;;8.70;49.80;;;;;;5043838;28;20040;-60
2023/02/09 12:41:06;;;;;;;4.60;3.47;;;8.80;50.50;;;;;;5043882;28;20033;-61
2023/02/09 12:43:36;;;;;;;8.35;4.65;;;8.90;50.00;;;;;;5040583;28;20292;-60
2023/02/09 12:46:29;;;;;;;6.85;4.18;;;9.00;49.70;;;;;;5046714;28;20025;-60
2023/02/09 12:49:00;;;;;;;8.43;4.30;;;8.90;49.70;;;;;;5041292;28;20151;-60
2023/02/09 12:51:53;;;;;;;8.77;3.60;;;8.80;49.80;;;;;;5038750;28;20025;-61
2023/02/09 12:54:47;;;;;;;7.85;4.43;;;8.60;50.20;;;;;;5041592;28;20040;-61
2023/02/09 12:57:16;;;;;;;8.43;4.53;;;8.40;50.90;;;;;;5040384;28;20152;-60
2023/02/09 13:02:23;;;;;;;8.18;4.75;;;8.10;51.90;;;;;;5046742;28;20030;-62
2023/02/09 13:05:13;;;;;;;6.63;5.25;;;8.20;52.10;;;;;;5043900;28;20024;-62
2023/02/09 13:08:12;;;;;;;7.60;3.50;;;8.30;52.30;;;;;;5046108;28;20077;-61
2023/02/09 13:10:56;;;;;;;8.95;4.78;;;8.50;52.00;;;;;;5051889;28;20413;-61
2023/02/09 13:13:30;;;;;;;7.15;4.07;;;8.90;51.60;;;;;;5042568;28;20036;-61
2023/02/09 13:16:02;;;;;;;10.18;4.65;;;9.10;51.10;;;;;;5043623;28;20338;-60
2023/02/09 13:18:30;;;;;;;7.95;4.38;;;9.20;50.90;;;;;;5048094;28;20452;-61
2023/02/09 13:21:33;;;;;;;9.93;4.00;;;9.30;51.00;;;;;;5048694;28;20201;-61
2023/02/09 13:24:14;;;;;;;8.57;4.38;;;9.40;50.80;;;;;;5046019;28;20032;-61